<?xml version='1.0' encoding='UTF-8'?>
<gpx version="1.1" creator="https://www.komoot.de" xmlns="http://www.topografix.com/GPX/1/1" xmlns:xsi="http://www.w3.org/2001/XMLSchema-instance" xsi:schemaLocation="http://www.topografix.com/GPX/1/1 http://www.topografix.com/GPX/1/1/gpx.xsd">
  <metadata>
    <name>SSL_HM</name>
    <author>
      <link href="https://www.komoot.de">
        <text>komoot</text>
        <type>text/html</type>
      </link>
    </author>
  </metadata>
  <trk>
    <name>SSL_HM</name>
    <trkseg>
      <trkpt lat="47.172563" lon="8.106471">
        <ele>501.921989</ele>
        <time>2024-09-20T14:20:41.718Z</time>
      </trkpt>
      <trkpt lat="47.172733" lon="8.106998">
        <ele>501.921989</ele>
        <time>2024-09-20T14:20:49.084Z</time>
      </trkpt>
      <trkpt lat="47.172513" lon="8.107152">
        <ele>501.921989</ele>
        <time>2024-09-20T14:20:54.648Z</time>
      </trkpt>
      <trkpt lat="47.172556" lon="8.107680">
        <ele>501.995809</ele>
        <time>2024-09-20T14:21:02.876Z</time>
      </trkpt>
      <trkpt lat="47.172561" lon="8.107761">
        <ele>502.035686</ele>
        <time>2024-09-20T14:21:03.971Z</time>
      </trkpt>
      <trkpt lat="47.172561" lon="8.107821">
        <ele>502.065103</ele>
        <time>2024-09-20T14:21:04.753Z</time>
      </trkpt>
      <trkpt lat="47.172561" lon="8.107869">
        <ele>502.088637</ele>
        <time>2024-09-20T14:21:05.381Z</time>
      </trkpt>
      <trkpt lat="47.172574" lon="8.108000">
        <ele>502.153546</ele>
        <time>2024-09-20T14:21:07.435Z</time>
      </trkpt>
      <trkpt lat="47.172587" lon="8.108095">
        <ele>502.201058</ele>
        <time>2024-09-20T14:21:08.801Z</time>
      </trkpt>
      <trkpt lat="47.172566" lon="8.108405">
        <ele>502.353801</ele>
        <time>2024-09-20T14:21:13.491Z</time>
      </trkpt>
      <trkpt lat="47.172572" lon="8.108492">
        <ele>502.396675</ele>
        <time>2024-09-20T14:21:15.057Z</time>
      </trkpt>
      <trkpt lat="47.172597" lon="8.108818">
        <ele>502.557524</ele>
        <time>2024-09-20T14:21:20.428Z</time>
      </trkpt>
      <trkpt lat="47.172600" lon="8.109334">
        <ele>502.810523</ele>
        <time>2024-09-20T14:21:28.878Z</time>
      </trkpt>
      <trkpt lat="47.172596" lon="8.109400">
        <ele>502.843010</ele>
        <time>2024-09-20T14:21:29.870Z</time>
      </trkpt>
      <trkpt lat="47.172582" lon="8.109673">
        <ele>502.977240</ele>
        <time>2024-09-20T14:21:34.088Z</time>
      </trkpt>
      <trkpt lat="47.172561" lon="8.109790">
        <ele>503.036570</ele>
        <time>2024-09-20T14:21:35.902Z</time>
      </trkpt>
      <trkpt lat="47.172520" lon="8.109935">
        <ele>503.113566</ele>
        <time>2024-09-20T14:21:38.663Z</time>
      </trkpt>
      <trkpt lat="47.172445" lon="8.110089">
        <ele>503.206448</ele>
        <time>2024-09-20T14:21:42.065Z</time>
      </trkpt>
      <trkpt lat="47.172383" lon="8.110179">
        <ele>503.283321</ele>
        <time>2024-09-20T14:21:44.059Z</time>
      </trkpt>
      <trkpt lat="47.172204" lon="8.110378">
        <ele>503.490581</ele>
        <time>2024-09-20T14:21:50.314Z</time>
      </trkpt>
      <trkpt lat="47.172121" lon="8.110471">
        <ele>503.586961</ele>
        <time>2024-09-20T14:21:53.327Z</time>
      </trkpt>
      <trkpt lat="47.171878" lon="8.110739">
        <ele>503.867514</ele>
        <time>2024-09-20T14:22:01.778Z</time>
      </trkpt>
      <trkpt lat="47.171866" lon="8.110751">
        <ele>503.880918</ele>
        <time>2024-09-20T14:22:02.131Z</time>
      </trkpt>
      <trkpt lat="47.171841" lon="8.110777">
        <ele>503.909200</ele>
        <time>2024-09-20T14:22:02.920Z</time>
      </trkpt>
      <trkpt lat="47.171605" lon="8.110998">
        <ele>504.167630</ele>
        <time>2024-09-20T14:22:09.939Z</time>
      </trkpt>
      <trkpt lat="47.171514" lon="8.111111">
        <ele>504.277638</ele>
        <time>2024-09-20T14:22:13.162Z</time>
      </trkpt>
      <trkpt lat="47.171496" lon="8.111135">
        <ele>504.300079</ele>
        <time>2024-09-20T14:22:13.708Z</time>
      </trkpt>
      <trkpt lat="47.171463" lon="8.111196">
        <ele>504.349034</ele>
        <time>2024-09-20T14:22:14.898Z</time>
      </trkpt>
      <trkpt lat="47.171381" lon="8.111372">
        <ele>504.483023</ele>
        <time>2024-09-20T14:22:18.142Z</time>
      </trkpt>
      <trkpt lat="47.171368" lon="8.111560">
        <ele>504.601691</ele>
        <time>2024-09-20T14:22:20.774Z</time>
      </trkpt>
      <trkpt lat="47.171430" lon="8.111575">
        <ele>504.659732</ele>
        <time>2024-09-20T14:22:22.154Z</time>
      </trkpt>
      <trkpt lat="47.171478" lon="8.111636">
        <ele>504.718328</ele>
        <time>2024-09-20T14:22:23.649Z</time>
      </trkpt>
      <trkpt lat="47.171644" lon="8.112058">
        <ele>504.977857</ele>
        <time>2024-09-20T14:22:31.572Z</time>
      </trkpt>
      <trkpt lat="47.171865" lon="8.112506">
        <ele>505.212687</ele>
        <time>2024-09-20T14:22:39.741Z</time>
      </trkpt>
      <trkpt lat="47.172142" lon="8.112956">
        <ele>505.470233</ele>
        <time>2024-09-20T14:22:48.669Z</time>
      </trkpt>
      <trkpt lat="47.172213" lon="8.113067">
        <ele>505.534893</ele>
        <time>2024-09-20T14:22:51.052Z</time>
      </trkpt>
      <trkpt lat="47.172299" lon="8.113206">
        <ele>505.614629</ele>
        <time>2024-09-20T14:22:54.017Z</time>
      </trkpt>
      <trkpt lat="47.172488" lon="8.113521">
        <ele>505.792872</ele>
        <time>2024-09-20T14:23:00.447Z</time>
      </trkpt>
      <trkpt lat="47.172637" lon="8.113774">
        <ele>505.934882</ele>
        <time>2024-09-20T14:23:05.704Z</time>
      </trkpt>
      <trkpt lat="47.172802" lon="8.114041">
        <ele>506.090310</ele>
        <time>2024-09-20T14:23:11.315Z</time>
      </trkpt>
      <trkpt lat="47.172771" lon="8.114154">
        <ele>506.143437</ele>
        <time>2024-09-20T14:23:12.914Z</time>
      </trkpt>
      <trkpt lat="47.172787" lon="8.114243">
        <ele>506.183574</ele>
        <time>2024-09-20T14:23:14.254Z</time>
      </trkpt>
      <trkpt lat="47.172850" lon="8.114319">
        <ele>506.235828</ele>
        <time>2024-09-20T14:23:16.039Z</time>
      </trkpt>
      <trkpt lat="47.172933" lon="8.114315">
        <ele>506.289089</ele>
        <time>2024-09-20T14:23:17.805Z</time>
      </trkpt>
      <trkpt lat="47.173041" lon="8.114422">
        <ele>506.372600</ele>
        <time>2024-09-20T14:23:20.305Z</time>
      </trkpt>
      <trkpt lat="47.173165" lon="8.114688">
        <ele>506.513221</ele>
        <time>2024-09-20T14:23:25.131Z</time>
      </trkpt>
      <trkpt lat="47.173191" lon="8.114795">
        <ele>506.562762</ele>
        <time>2024-09-20T14:23:26.699Z</time>
      </trkpt>
      <trkpt lat="47.173223" lon="8.114913">
        <ele>506.618151</ele>
        <time>2024-09-20T14:23:28.313Z</time>
      </trkpt>
      <trkpt lat="47.173309" lon="8.115291">
        <ele>506.791938</ele>
        <time>2024-09-20T14:23:34.303Z</time>
      </trkpt>
      <trkpt lat="47.173326" lon="8.115384">
        <ele>506.833924</ele>
        <time>2024-09-20T14:23:35.518Z</time>
      </trkpt>
      <trkpt lat="47.173361" lon="8.115573">
        <ele>506.919328</ele>
        <time>2024-09-20T14:23:38.679Z</time>
      </trkpt>
      <trkpt lat="47.173503" lon="8.116407">
        <ele>507.573505</ele>
        <time>2024-09-20T14:23:52.511Z</time>
      </trkpt>
      <trkpt lat="47.173532" lon="8.116660">
        <ele>507.912798</ele>
        <time>2024-09-20T14:23:57.597Z</time>
      </trkpt>
      <trkpt lat="47.173607" lon="8.117119">
        <ele>508.537072</ele>
        <time>2024-09-20T14:24:06.114Z</time>
      </trkpt>
      <trkpt lat="47.173690" lon="8.117580">
        <ele>509.167721</ele>
        <time>2024-09-20T14:24:15.622Z</time>
      </trkpt>
      <trkpt lat="47.173712" lon="8.117701">
        <ele>509.333356</ele>
        <time>2024-09-20T14:24:18.094Z</time>
      </trkpt>
      <trkpt lat="47.173732" lon="8.117808">
        <ele>509.480105</ele>
        <time>2024-09-20T14:24:20.007Z</time>
      </trkpt>
      <trkpt lat="47.173734" lon="8.117987">
        <ele>509.716847</ele>
        <time>2024-09-20T14:24:23.914Z</time>
      </trkpt>
      <trkpt lat="47.173793" lon="8.118388">
        <ele>510.259410</ele>
        <time>2024-09-20T14:24:32.722Z</time>
      </trkpt>
      <trkpt lat="47.173926" lon="8.118996">
        <ele>510.978410</ele>
        <time>2024-09-20T14:24:47.691Z</time>
      </trkpt>
      <trkpt lat="47.173992" lon="8.119215">
        <ele>511.206423</ele>
        <time>2024-09-20T14:24:53.337Z</time>
      </trkpt>
      <trkpt lat="47.174058" lon="8.119342">
        <ele>511.358580</ele>
        <time>2024-09-20T14:24:56.489Z</time>
      </trkpt>
      <trkpt lat="47.173999" lon="8.119417">
        <ele>511.467761</ele>
        <time>2024-09-20T14:24:59.271Z</time>
      </trkpt>
      <trkpt lat="47.173982" lon="8.119572">
        <ele>511.617199</ele>
        <time>2024-09-20T14:25:02.886Z</time>
      </trkpt>
      <trkpt lat="47.174080" lon="8.120264">
        <ele>512.289990</ele>
        <time>2024-09-20T14:25:15.964Z</time>
      </trkpt>
      <trkpt lat="47.174146" lon="8.120699">
        <ele>512.714213</ele>
        <time>2024-09-20T14:25:22.835Z</time>
      </trkpt>
      <trkpt lat="47.174180" lon="8.120997">
        <ele>513.001818</ele>
        <time>2024-09-20T14:25:26.696Z</time>
      </trkpt>
      <trkpt lat="47.174188" lon="8.121180">
        <ele>513.172044</ele>
        <time>2024-09-20T14:25:28.959Z</time>
      </trkpt>
      <trkpt lat="47.174181" lon="8.121438">
        <ele>512.928439</ele>
        <time>2024-09-20T14:25:31.919Z</time>
      </trkpt>
      <trkpt lat="47.174122" lon="8.121929">
        <ele>512.458022</ele>
        <time>2024-09-20T14:25:37.675Z</time>
      </trkpt>
      <trkpt lat="47.174113" lon="8.122143">
        <ele>512.255737</ele>
        <time>2024-09-20T14:25:39.931Z</time>
      </trkpt>
      <trkpt lat="47.174144" lon="8.122522">
        <ele>511.895588</ele>
        <time>2024-09-20T14:25:44.033Z</time>
      </trkpt>
      <trkpt lat="47.174217" lon="8.122865">
        <ele>511.556494</ele>
        <time>2024-09-20T14:25:47.822Z</time>
      </trkpt>
      <trkpt lat="47.174326" lon="8.123208">
        <ele>511.199275</ele>
        <time>2024-09-20T14:25:51.796Z</time>
      </trkpt>
      <trkpt lat="47.174501" lon="8.123732">
        <ele>510.666317</ele>
        <time>2024-09-20T14:25:57.996Z</time>
      </trkpt>
      <trkpt lat="47.174633" lon="8.124126">
        <ele>510.503575</ele>
        <time>2024-09-20T14:26:02.784Z</time>
      </trkpt>
      <trkpt lat="47.174949" lon="8.125082">
        <ele>510.109724</ele>
        <time>2024-09-20T14:26:15.260Z</time>
      </trkpt>
      <trkpt lat="47.175120" lon="8.125652">
        <ele>509.878890</ele>
        <time>2024-09-20T14:26:23.552Z</time>
      </trkpt>
      <trkpt lat="47.175246" lon="8.126159">
        <ele>509.676612</ele>
        <time>2024-09-20T14:26:31.636Z</time>
      </trkpt>
      <trkpt lat="47.175330" lon="8.126789">
        <ele>509.409704</ele>
        <time>2024-09-20T14:26:41.351Z</time>
      </trkpt>
      <trkpt lat="47.175346" lon="8.127518">
        <ele>509.106471</ele>
        <time>2024-09-20T14:26:50.156Z</time>
      </trkpt>
      <trkpt lat="47.175224" lon="8.128662">
        <ele>508.625045</ele>
        <time>2024-09-20T14:27:03.186Z</time>
      </trkpt>
      <trkpt lat="47.175046" lon="8.128573">
        <ele>508.409818</ele>
        <time>2024-09-20T14:27:06.144Z</time>
      </trkpt>
      <trkpt lat="47.174685" lon="8.128260">
        <ele>507.859630</ele>
        <time>2024-09-20T14:27:12.946Z</time>
      </trkpt>
      <trkpt lat="47.174553" lon="8.128142">
        <ele>507.656825</ele>
        <time>2024-09-20T14:27:15.527Z</time>
      </trkpt>
      <trkpt lat="47.174443" lon="8.128046">
        <ele>507.488893</ele>
        <time>2024-09-20T14:27:17.539Z</time>
      </trkpt>
      <trkpt lat="47.174359" lon="8.127966">
        <ele>507.357507</ele>
        <time>2024-09-20T14:27:19.216Z</time>
      </trkpt>
      <trkpt lat="47.174301" lon="8.127911">
        <ele>507.266903</ele>
        <time>2024-09-20T14:27:20.501Z</time>
      </trkpt>
      <trkpt lat="47.174251" lon="8.127857">
        <ele>507.185461</ele>
        <time>2024-09-20T14:27:21.574Z</time>
      </trkpt>
      <trkpt lat="47.174150" lon="8.127749">
        <ele>507.021518</ele>
        <time>2024-09-20T14:27:23.540Z</time>
      </trkpt>
      <trkpt lat="47.173954" lon="8.128086">
        <ele>506.625667</ele>
        <time>2024-09-20T14:27:28.433Z</time>
      </trkpt>
      <trkpt lat="47.173403" lon="8.128823">
        <ele>506.041982</ele>
        <time>2024-09-20T14:27:40.719Z</time>
      </trkpt>
      <trkpt lat="47.173349" lon="8.128929">
        <ele>506.002996</ele>
        <time>2024-09-20T14:27:42.311Z</time>
      </trkpt>
      <trkpt lat="47.173246" lon="8.129294">
        <ele>505.886681</ele>
        <time>2024-09-20T14:27:47.267Z</time>
      </trkpt>
      <trkpt lat="47.173240" lon="8.129332">
        <ele>505.875199</ele>
        <time>2024-09-20T14:27:47.755Z</time>
      </trkpt>
      <trkpt lat="47.173195" lon="8.129881">
        <ele>505.712448</ele>
        <time>2024-09-20T14:27:54.876Z</time>
      </trkpt>
      <trkpt lat="47.173127" lon="8.130064">
        <ele>505.651066</ele>
        <time>2024-09-20T14:27:57.540Z</time>
      </trkpt>
      <trkpt lat="47.172875" lon="8.130646">
        <ele>505.460953</ele>
        <time>2024-09-20T14:28:06.695Z</time>
      </trkpt>
      <trkpt lat="47.172492" lon="8.131714">
        <ele>505.608811</ele>
        <time>2024-09-20T14:28:22.335Z</time>
      </trkpt>
      <trkpt lat="47.172080" lon="8.132734">
        <ele>505.754096</ele>
        <time>2024-09-20T14:28:38.200Z</time>
      </trkpt>
      <trkpt lat="47.171672" lon="8.133810">
        <ele>506.696737</ele>
        <time>2024-09-20T14:28:58.353Z</time>
      </trkpt>
      <trkpt lat="47.171478" lon="8.134386">
        <ele>507.278726</ele>
        <time>2024-09-20T14:29:10.051Z</time>
      </trkpt>
      <trkpt lat="47.171277" lon="8.135037">
        <ele>507.926068</ele>
        <time>2024-09-20T14:29:23.454Z</time>
      </trkpt>
      <trkpt lat="47.170902" lon="8.136061">
        <ele>508.713335</ele>
        <time>2024-09-20T14:29:45.877Z</time>
      </trkpt>
      <trkpt lat="47.170723" lon="8.136458">
        <ele>509.001796</ele>
        <time>2024-09-20T14:29:54.413Z</time>
      </trkpt>
      <trkpt lat="47.170586" lon="8.136781">
        <ele>509.232326</ele>
        <time>2024-09-20T14:30:00.587Z</time>
      </trkpt>
      <trkpt lat="47.170423" lon="8.137256">
        <ele>509.554519</ele>
        <time>2024-09-20T14:30:07.841Z</time>
      </trkpt>
      <trkpt lat="47.170227" lon="8.137701">
        <ele>509.702763</ele>
        <time>2024-09-20T14:30:14.373Z</time>
      </trkpt>
      <trkpt lat="47.169807" lon="8.138604">
        <ele>509.183936</ele>
        <time>2024-09-20T14:30:27.139Z</time>
      </trkpt>
      <trkpt lat="47.169776" lon="8.138650">
        <ele>509.153222</ele>
        <time>2024-09-20T14:30:27.876Z</time>
      </trkpt>
      <trkpt lat="47.169469" lon="8.139114">
        <ele>508.846189</ele>
        <time>2024-09-20T14:30:35.442Z</time>
      </trkpt>
      <trkpt lat="47.169026" lon="8.139813">
        <ele>508.396638</ele>
        <time>2024-09-20T14:30:46.692Z</time>
      </trkpt>
      <trkpt lat="47.168986" lon="8.139930">
        <ele>508.336246</ele>
        <time>2024-09-20T14:30:48.258Z</time>
      </trkpt>
      <trkpt lat="47.168913" lon="8.140403">
        <ele>508.112577</ele>
        <time>2024-09-20T14:30:53.875Z</time>
      </trkpt>
      <trkpt lat="47.168867" lon="8.140539">
        <ele>508.042528</ele>
        <time>2024-09-20T14:30:55.793Z</time>
      </trkpt>
      <trkpt lat="47.168611" lon="8.140935">
        <ele>507.790534</ele>
        <time>2024-09-20T14:31:02.140Z</time>
      </trkpt>
      <trkpt lat="47.168566" lon="8.141047">
        <ele>507.730540</ele>
        <time>2024-09-20T14:31:03.584Z</time>
      </trkpt>
      <trkpt lat="47.168553" lon="8.141257">
        <ele>507.633299</ele>
        <time>2024-09-20T14:31:06.121Z</time>
      </trkpt>
      <trkpt lat="47.168553" lon="8.141349">
        <ele>507.590874</ele>
        <time>2024-09-20T14:31:07.358Z</time>
      </trkpt>
      <trkpt lat="47.168521" lon="8.141416">
        <ele>507.553115</ele>
        <time>2024-09-20T14:31:08.494Z</time>
      </trkpt>
      <trkpt lat="47.167899" lon="8.141476">
        <ele>507.211245</ele>
        <time>2024-09-20T14:31:19.782Z</time>
      </trkpt>
      <trkpt lat="47.167672" lon="8.141520">
        <ele>507.128301</ele>
        <time>2024-09-20T14:31:23.838Z</time>
      </trkpt>
      <trkpt lat="47.167500" lon="8.141608">
        <ele>507.062331</ele>
        <time>2024-09-20T14:31:27.154Z</time>
      </trkpt>
      <trkpt lat="47.167456" lon="8.141630">
        <ele>507.045496</ele>
        <time>2024-09-20T14:31:28.011Z</time>
      </trkpt>
      <trkpt lat="47.167315" lon="8.141723">
        <ele>506.989517</ele>
        <time>2024-09-20T14:31:30.677Z</time>
      </trkpt>
      <trkpt lat="47.167121" lon="8.141932">
        <ele>506.902405</ele>
        <time>2024-09-20T14:31:35.123Z</time>
      </trkpt>
      <trkpt lat="47.166354" lon="8.143009">
        <ele>506.652842</ele>
        <time>2024-09-20T14:31:54.614Z</time>
      </trkpt>
      <trkpt lat="47.166159" lon="8.143214">
        <ele>506.653096</ele>
        <time>2024-09-20T14:31:59.645Z</time>
      </trkpt>
      <trkpt lat="47.164681" lon="8.144765">
        <ele>506.473529</ele>
        <time>2024-09-20T14:32:34.763Z</time>
      </trkpt>
      <trkpt lat="47.163210" lon="8.146432">
        <ele>505.976012</ele>
        <time>2024-09-20T14:33:08.062Z</time>
      </trkpt>
      <trkpt lat="47.162483" lon="8.147327">
        <ele>505.755155</ele>
        <time>2024-09-20T14:33:25.813Z</time>
      </trkpt>
      <trkpt lat="47.161669" lon="8.148439">
        <ele>505.918460</ele>
        <time>2024-09-20T14:33:48.171Z</time>
      </trkpt>
      <trkpt lat="47.159580" lon="8.151562">
        <ele>506.528949</ele>
        <time>2024-09-20T14:34:48.782Z</time>
      </trkpt>
      <trkpt lat="47.156950" lon="8.155312">
        <ele>506.546579</ele>
        <time>2024-09-20T14:35:59.617Z</time>
      </trkpt>
      <trkpt lat="47.156616" lon="8.155722">
        <ele>506.426954</ele>
        <time>2024-09-20T14:36:07.484Z</time>
      </trkpt>
      <trkpt lat="47.156010" lon="8.156393">
        <ele>506.218381</ele>
        <time>2024-09-20T14:36:21.258Z</time>
      </trkpt>
      <trkpt lat="47.155748" lon="8.156730">
        <ele>506.119206</ele>
        <time>2024-09-20T14:36:27.694Z</time>
      </trkpt>
      <trkpt lat="47.155448" lon="8.157179">
        <ele>505.990616</ele>
        <time>2024-09-20T14:36:35.618Z</time>
      </trkpt>
      <trkpt lat="47.154553" lon="8.158675">
        <ele>505.573880</ele>
        <time>2024-09-20T14:37:00.370Z</time>
      </trkpt>
      <trkpt lat="47.153408" lon="8.160716">
        <ele>504.920834</ele>
        <time>2024-09-20T14:37:33.029Z</time>
      </trkpt>
      <trkpt lat="47.153164" lon="8.161192">
        <ele>504.873399</ele>
        <time>2024-09-20T14:37:40.207Z</time>
      </trkpt>
      <trkpt lat="47.152861" lon="8.161894">
        <ele>504.807233</ele>
        <time>2024-09-20T14:37:50.553Z</time>
      </trkpt>
      <trkpt lat="47.152408" lon="8.163087">
        <ele>505.054626</ele>
        <time>2024-09-20T14:38:09.289Z</time>
      </trkpt>
      <trkpt lat="47.152188" lon="8.163671">
        <ele>505.727813</ele>
        <time>2024-09-20T14:38:19.750Z</time>
      </trkpt>
      <trkpt lat="47.152155" lon="8.163761">
        <ele>505.830914</ele>
        <time>2024-09-20T14:38:21.412Z</time>
      </trkpt>
      <trkpt lat="47.152007" lon="8.164155">
        <ele>506.284781</ele>
        <time>2024-09-20T14:38:29.305Z</time>
      </trkpt>
      <trkpt lat="47.151779" lon="8.164763">
        <ele>506.984890</ele>
        <time>2024-09-20T14:38:43.199Z</time>
      </trkpt>
      <trkpt lat="47.151394" lon="8.165777">
        <ele>508.768634</ele>
        <time>2024-09-20T14:39:09.952Z</time>
      </trkpt>
      <trkpt lat="47.151089" lon="8.166613">
        <ele>510.492014</ele>
        <time>2024-09-20T14:39:31.952Z</time>
      </trkpt>
      <trkpt lat="47.150760" lon="8.167649">
        <ele>512.269664</ele>
        <time>2024-09-20T14:39:56.806Z</time>
      </trkpt>
      <trkpt lat="47.150736" lon="8.167724">
        <ele>512.299414</ele>
        <time>2024-09-20T14:39:58.566Z</time>
      </trkpt>
      <trkpt lat="47.150549" lon="8.168277">
        <ele>512.521072</ele>
        <time>2024-09-20T14:40:11.191Z</time>
      </trkpt>
      <trkpt lat="47.150396" lon="8.168658">
        <ele>512.679877</ele>
        <time>2024-09-20T14:40:17.860Z</time>
      </trkpt>
      <trkpt lat="47.150145" lon="8.169168">
        <ele>512.905825</ele>
        <time>2024-09-20T14:40:25.667Z</time>
      </trkpt>
      <trkpt lat="47.149954" lon="8.169500">
        <ele>513.061901</ele>
        <time>2024-09-20T14:40:30.812Z</time>
      </trkpt>
      <trkpt lat="47.149577" lon="8.170029">
        <ele>512.865505</ele>
        <time>2024-09-20T14:40:39.583Z</time>
      </trkpt>
      <trkpt lat="47.149379" lon="8.170277">
        <ele>512.665282</ele>
        <time>2024-09-20T14:40:43.739Z</time>
      </trkpt>
      <trkpt lat="47.148591" lon="8.171265">
        <ele>511.868088</ele>
        <time>2024-09-20T14:41:02.030Z</time>
      </trkpt>
      <trkpt lat="47.148314" lon="8.171705">
        <ele>511.796968</ele>
        <time>2024-09-20T14:41:08.916Z</time>
      </trkpt>
      <trkpt lat="47.147923" lon="8.172418">
        <ele>511.881492</ele>
        <time>2024-09-20T14:41:22.198Z</time>
      </trkpt>
      <trkpt lat="47.147536" lon="8.173175">
        <ele>511.968888</ele>
        <time>2024-09-20T14:41:35.987Z</time>
      </trkpt>
      <trkpt lat="47.147496" lon="8.173272">
        <ele>511.979357</ele>
        <time>2024-09-20T14:41:37.755Z</time>
      </trkpt>
      <trkpt lat="47.147466" lon="8.173342">
        <ele>511.986992</ele>
        <time>2024-09-20T14:41:38.846Z</time>
      </trkpt>
      <trkpt lat="47.147428" lon="8.173343">
        <ele>511.992149</ele>
        <time>2024-09-20T14:41:39.531Z</time>
      </trkpt>
      <trkpt lat="47.147314" lon="8.173634">
        <ele>511.952170</ele>
        <time>2024-09-20T14:41:45.002Z</time>
      </trkpt>
      <trkpt lat="47.147290" lon="8.173694">
        <ele>511.933942</ele>
        <time>2024-09-20T14:41:46.141Z</time>
      </trkpt>
      <trkpt lat="47.146958" lon="8.174604">
        <ele>511.663527</ele>
        <time>2024-09-20T14:42:07.880Z</time>
      </trkpt>
      <trkpt lat="47.146728" lon="8.175124">
        <ele>511.501095</ele>
        <time>2024-09-20T14:42:20.543Z</time>
      </trkpt>
      <trkpt lat="47.146248" lon="8.175958">
        <ele>511.039057</ele>
        <time>2024-09-20T14:42:42.638Z</time>
      </trkpt>
      <trkpt lat="47.145402" lon="8.177346">
        <ele>509.666878</ele>
        <time>2024-09-20T14:43:19.292Z</time>
      </trkpt>
      <trkpt lat="47.144623" lon="8.178630">
        <ele>508.281183</ele>
        <time>2024-09-20T14:43:53.100Z</time>
      </trkpt>
      <trkpt lat="47.144533" lon="8.178869">
        <ele>508.055266</ele>
        <time>2024-09-20T14:43:56.329Z</time>
      </trkpt>
      <trkpt lat="47.143900" lon="8.179901">
        <ele>506.962776</ele>
        <time>2024-09-20T14:44:11.890Z</time>
      </trkpt>
      <trkpt lat="47.143655" lon="8.180299">
        <ele>506.611378</ele>
        <time>2024-09-20T14:44:18.134Z</time>
      </trkpt>
      <trkpt lat="47.143504" lon="8.180544">
        <ele>506.394946</ele>
        <time>2024-09-20T14:44:21.943Z</time>
      </trkpt>
      <trkpt lat="47.143322" lon="8.180836">
        <ele>506.135676</ele>
        <time>2024-09-20T14:44:26.431Z</time>
      </trkpt>
      <trkpt lat="47.142779" lon="8.181720">
        <ele>505.421291</ele>
        <time>2024-09-20T14:44:40.166Z</time>
      </trkpt>
      <trkpt lat="47.141349" lon="8.184045">
        <ele>504.993530</ele>
        <time>2024-09-20T14:45:19.955Z</time>
      </trkpt>
      <trkpt lat="47.141018" lon="8.184587">
        <ele>505.036380</ele>
        <time>2024-09-20T14:45:29.246Z</time>
      </trkpt>
      <trkpt lat="47.139888" lon="8.186430">
        <ele>505.717905</ele>
        <time>2024-09-20T14:46:04.737Z</time>
      </trkpt>
      <trkpt lat="47.139627" lon="8.186841">
        <ele>506.003001</ele>
        <time>2024-09-20T14:46:13.687Z</time>
      </trkpt>
      <trkpt lat="47.139060" lon="8.187770">
        <ele>506.850420</ele>
        <time>2024-09-20T14:46:34.801Z</time>
      </trkpt>
      <trkpt lat="47.138549" lon="8.188593">
        <ele>508.077602</ele>
        <time>2024-09-20T14:46:55.003Z</time>
      </trkpt>
      <trkpt lat="47.138337" lon="8.188936">
        <ele>508.587999</ele>
        <time>2024-09-20T14:47:04.084Z</time>
      </trkpt>
      <trkpt lat="47.138290" lon="8.189013">
        <ele>508.701936</ele>
        <time>2024-09-20T14:47:06.205Z</time>
      </trkpt>
      <trkpt lat="47.138093" lon="8.189386">
        <ele>509.222010</ele>
        <time>2024-09-20T14:47:15.602Z</time>
      </trkpt>
      <trkpt lat="47.137952" lon="8.189788">
        <ele>509.530437</ele>
        <time>2024-09-20T14:47:24.734Z</time>
      </trkpt>
      <trkpt lat="47.137866" lon="8.190312">
        <ele>509.807118</ele>
        <time>2024-09-20T14:47:34.680Z</time>
      </trkpt>
      <trkpt lat="47.137856" lon="8.190484">
        <ele>509.895726</ele>
        <time>2024-09-20T14:47:37.945Z</time>
      </trkpt>
      <trkpt lat="47.137820" lon="8.190753">
        <ele>510.036448</ele>
        <time>2024-09-20T14:47:42.179Z</time>
      </trkpt>
      <trkpt lat="47.137803" lon="8.190913">
        <ele>510.119570</ele>
        <time>2024-09-20T14:47:44.967Z</time>
      </trkpt>
      <trkpt lat="47.137773" lon="8.190950">
        <ele>510.149119</ele>
        <time>2024-09-20T14:47:46.039Z</time>
      </trkpt>
      <trkpt lat="47.137668" lon="8.190953">
        <ele>510.228364</ele>
        <time>2024-09-20T14:47:48.022Z</time>
      </trkpt>
      <trkpt lat="47.137576" lon="8.190966">
        <ele>510.298105</ele>
        <time>2024-09-20T14:47:49.946Z</time>
      </trkpt>
      <trkpt lat="47.137370" lon="8.190896">
        <ele>510.457646</ele>
        <time>2024-09-20T14:47:54.513Z</time>
      </trkpt>
      <trkpt lat="47.137271" lon="8.190896">
        <ele>510.532349</ele>
        <time>2024-09-20T14:47:56.286Z</time>
      </trkpt>
      <trkpt lat="47.137174" lon="8.190922">
        <ele>510.606750</ele>
        <time>2024-09-20T14:47:58.142Z</time>
      </trkpt>
      <trkpt lat="47.137067" lon="8.191000">
        <ele>510.696871</ele>
        <time>2024-09-20T14:48:00.521Z</time>
      </trkpt>
      <trkpt lat="47.137017" lon="8.190928">
        <ele>510.651656</ele>
        <time>2024-09-20T14:48:01.621Z</time>
      </trkpt>
      <trkpt lat="47.136848" lon="8.190803">
        <ele>510.287711</ele>
        <time>2024-09-20T14:48:04.777Z</time>
      </trkpt>
      <trkpt lat="47.136731" lon="8.190787">
        <ele>510.061661</ele>
        <time>2024-09-20T14:48:06.800Z</time>
      </trkpt>
      <trkpt lat="47.136162" lon="8.190753">
        <ele>508.966148</ele>
        <time>2024-09-20T14:48:15.673Z</time>
      </trkpt>
      <trkpt lat="47.136086" lon="8.190751">
        <ele>508.819920</ele>
        <time>2024-09-20T14:48:16.867Z</time>
      </trkpt>
      <trkpt lat="47.135811" lon="8.190724">
        <ele>508.289712</ele>
        <time>2024-09-20T14:48:20.914Z</time>
      </trkpt>
      <trkpt lat="47.135817" lon="8.190195">
        <ele>507.597339</ele>
        <time>2024-09-20T14:48:45.953Z</time>
      </trkpt>
      <trkpt lat="47.135875" lon="8.189975">
        <ele>507.288571</ele>
        <time>2024-09-20T14:48:57.111Z</time>
      </trkpt>
      <trkpt lat="47.135870" lon="8.189844">
        <ele>507.135709</ele>
        <time>2024-09-20T14:49:03.340Z</time>
      </trkpt>
      <trkpt lat="47.135780" lon="8.189523">
        <ele>506.740361</ele>
        <time>2024-09-20T14:49:19.755Z</time>
      </trkpt>
      <trkpt lat="47.135795" lon="8.189464">
        <ele>506.668639</ele>
        <time>2024-09-20T14:49:22.730Z</time>
      </trkpt>
      <trkpt lat="47.135556" lon="8.188885">
        <ele>505.897451</ele>
        <time>2024-09-20T14:49:54.743Z</time>
      </trkpt>
      <trkpt lat="47.135244" lon="8.188915">
        <ele>505.374078</ele>
        <time>2024-09-20T14:50:16.489Z</time>
      </trkpt>
      <trkpt lat="47.135069" lon="8.188909">
        <ele>505.081066</ele>
        <time>2024-09-20T14:50:28.669Z</time>
      </trkpt>
      <trkpt lat="47.134896" lon="8.188927">
        <ele>504.790757</ele>
        <time>2024-09-20T14:50:40.695Z</time>
      </trkpt>
      <trkpt lat="47.134649" lon="8.189105">
        <ele>504.330293</ele>
        <time>2024-09-20T14:50:59.840Z</time>
      </trkpt>
      <trkpt lat="47.134568" lon="8.189163">
        <ele>504.233885</ele>
        <time>2024-09-20T14:51:06.079Z</time>
      </trkpt>
      <trkpt lat="47.134486" lon="8.189320">
        <ele>504.179494</ele>
        <time>2024-09-20T14:51:15.478Z</time>
      </trkpt>
      <trkpt lat="47.134479" lon="8.189588">
        <ele>504.105796</ele>
        <time>2024-09-20T14:51:28.151Z</time>
      </trkpt>
      <trkpt lat="47.134289" lon="8.189834">
        <ele>504.003523</ele>
        <time>2024-09-20T14:51:45.748Z</time>
      </trkpt>
      <trkpt lat="47.134018" lon="8.190067">
        <ele>503.876706</ele>
        <time>2024-09-20T14:52:07.558Z</time>
      </trkpt>
      <trkpt lat="47.133728" lon="8.189977">
        <ele>503.756983</ele>
        <time>2024-09-20T14:52:28.171Z</time>
      </trkpt>
      <trkpt lat="47.133589" lon="8.190068">
        <ele>503.695518</ele>
        <time>2024-09-20T14:52:38.726Z</time>
      </trkpt>
      <trkpt lat="47.133537" lon="8.190094">
        <ele>503.673332</ele>
        <time>2024-09-20T14:52:42.548Z</time>
      </trkpt>
      <trkpt lat="47.133485" lon="8.190087">
        <ele>503.652239</ele>
        <time>2024-09-20T14:52:46.212Z</time>
      </trkpt>
      <trkpt lat="47.133374" lon="8.190165">
        <ele>503.602542</ele>
        <time>2024-09-20T14:52:54.743Z</time>
      </trkpt>
      <trkpt lat="47.132841" lon="8.190540">
        <ele>503.480122</ele>
        <time>2024-09-20T14:53:35.811Z</time>
      </trkpt>
      <trkpt lat="47.132828" lon="8.190549">
        <ele>503.478514</ele>
        <time>2024-09-20T14:53:36.825Z</time>
      </trkpt>
      <trkpt lat="47.132806" lon="8.190562">
        <ele>503.475862</ele>
        <time>2024-09-20T14:53:38.463Z</time>
      </trkpt>
      <trkpt lat="47.132382" lon="8.190776">
        <ele>503.425713</ele>
        <time>2024-09-20T14:54:09.628Z</time>
      </trkpt>
      <trkpt lat="47.132113" lon="8.190808">
        <ele>503.395524</ele>
        <time>2024-09-20T14:54:28.363Z</time>
      </trkpt>
      <trkpt lat="47.132043" lon="8.190843">
        <ele>503.387252</ele>
        <time>2024-09-20T14:54:33.503Z</time>
      </trkpt>
      <trkpt lat="47.131868" lon="8.190932">
        <ele>503.366538</ele>
        <time>2024-09-20T14:54:46.353Z</time>
      </trkpt>
      <trkpt lat="47.131651" lon="8.191127">
        <ele>503.338086</ele>
        <time>2024-09-20T14:55:04.080Z</time>
      </trkpt>
      <trkpt lat="47.131445" lon="8.191190">
        <ele>503.330544</ele>
        <time>2024-09-20T14:55:18.692Z</time>
      </trkpt>
      <trkpt lat="47.130801" lon="8.191500">
        <ele>503.390976</ele>
        <time>2024-09-20T14:56:05.760Z</time>
      </trkpt>
      <trkpt lat="47.130648" lon="8.191508">
        <ele>503.404628</ele>
        <time>2024-09-20T14:56:16.407Z</time>
      </trkpt>
      <trkpt lat="47.130464" lon="8.191518">
        <ele>503.421048</ele>
        <time>2024-09-20T14:56:29.210Z</time>
      </trkpt>
      <trkpt lat="47.129970" lon="8.191961">
        <ele>503.472654</ele>
        <time>2024-09-20T14:57:09.452Z</time>
      </trkpt>
      <trkpt lat="47.129785" lon="8.192058">
        <ele>503.535996</ele>
        <time>2024-09-20T14:57:23.096Z</time>
      </trkpt>
      <trkpt lat="47.129474" lon="8.192141">
        <ele>503.768505</ele>
        <time>2024-09-20T14:57:45.028Z</time>
      </trkpt>
      <trkpt lat="47.129095" lon="8.192107">
        <ele>504.047813</ele>
        <time>2024-09-20T14:58:11.423Z</time>
      </trkpt>
      <trkpt lat="47.128850" lon="8.192084">
        <ele>504.228400</ele>
        <time>2024-09-20T14:58:28.477Z</time>
      </trkpt>
      <trkpt lat="47.128580" lon="8.192031">
        <ele>504.428773</ele>
        <time>2024-09-20T14:58:47.386Z</time>
      </trkpt>
      <trkpt lat="47.128526" lon="8.192053">
        <ele>504.469993</ele>
        <time>2024-09-20T14:58:51.313Z</time>
      </trkpt>
      <trkpt lat="47.128444" lon="8.192312">
        <ele>504.612961</ele>
        <time>2024-09-20T14:59:04.812Z</time>
      </trkpt>
      <trkpt lat="47.128379" lon="8.192576">
        <ele>504.753469</ele>
        <time>2024-09-20T14:59:18.090Z</time>
      </trkpt>
      <trkpt lat="47.127548" lon="8.192771">
        <ele>505.123620</ele>
        <time>2024-09-20T14:59:37.335Z</time>
      </trkpt>
      <trkpt lat="47.127528" lon="8.192776">
        <ele>505.131977</ele>
        <time>2024-09-20T14:59:37.785Z</time>
      </trkpt>
      <trkpt lat="47.127358" lon="8.192831">
        <ele>505.203678</ele>
        <time>2024-09-20T14:59:43.869Z</time>
      </trkpt>
      <trkpt lat="47.127347" lon="8.192759">
        <ele>505.224359</ele>
        <time>2024-09-20T14:59:45.023Z</time>
      </trkpt>
      <trkpt lat="47.127283" lon="8.192464">
        <ele>505.311135</ele>
        <time>2024-09-20T14:59:49.478Z</time>
      </trkpt>
      <trkpt lat="47.127233" lon="8.192341">
        <ele>505.351290</ele>
        <time>2024-09-20T14:59:51.543Z</time>
      </trkpt>
      <trkpt lat="47.127161" lon="8.192255">
        <ele>505.389506</ele>
        <time>2024-09-20T14:59:53.425Z</time>
      </trkpt>
      <trkpt lat="47.127119" lon="8.192208">
        <ele>505.411250</ele>
        <time>2024-09-20T14:59:54.436Z</time>
      </trkpt>
      <trkpt lat="47.125656" lon="8.190634">
        <ele>505.080101</ele>
        <time>2024-09-20T15:00:27.385Z</time>
      </trkpt>
      <trkpt lat="47.125630" lon="8.190608">
        <ele>505.070174</ele>
        <time>2024-09-20T15:00:27.955Z</time>
      </trkpt>
      <trkpt lat="47.125596" lon="8.190570">
        <ele>505.056691</ele>
        <time>2024-09-20T15:00:28.742Z</time>
      </trkpt>
      <trkpt lat="47.125385" lon="8.190351">
        <ele>504.976830</ele>
        <time>2024-09-20T15:00:33.406Z</time>
      </trkpt>
      <trkpt lat="47.125230" lon="8.190183">
        <ele>504.937039</ele>
        <time>2024-09-20T15:00:36.978Z</time>
      </trkpt>
      <trkpt lat="47.125440" lon="8.189721">
        <ele>504.858933</ele>
        <time>2024-09-20T15:00:43.996Z</time>
      </trkpt>
      <trkpt lat="47.125447" lon="8.189664">
        <ele>504.850791</ele>
        <time>2024-09-20T15:00:44.702Z</time>
      </trkpt>
      <trkpt lat="47.125434" lon="8.189600">
        <ele>504.841402</ele>
        <time>2024-09-20T15:00:45.548Z</time>
      </trkpt>
      <trkpt lat="47.124964" lon="8.188948">
        <ele>504.707871</ele>
        <time>2024-09-20T15:00:57.753Z</time>
      </trkpt>
      <trkpt lat="47.124742" lon="8.188666">
        <ele>504.647247</ele>
        <time>2024-09-20T15:01:03.241Z</time>
      </trkpt>
      <trkpt lat="47.124653" lon="8.188549">
        <ele>504.622576</ele>
        <time>2024-09-20T15:01:06.946Z</time>
      </trkpt>
      <trkpt lat="47.124591" lon="8.188469">
        <ele>504.604853</ele>
        <time>2024-09-20T15:01:08.472Z</time>
      </trkpt>
      <trkpt lat="47.124240" lon="8.188076">
        <ele>504.492163</ele>
        <time>2024-09-20T15:01:16.643Z</time>
      </trkpt>
      <trkpt lat="47.124088" lon="8.187920">
        <ele>504.444817</ele>
        <time>2024-09-20T15:01:20.099Z</time>
      </trkpt>
      <trkpt lat="47.123387" lon="8.187569">
        <ele>504.255686</ele>
        <time>2024-09-20T15:01:33.772Z</time>
      </trkpt>
      <trkpt lat="47.123028" lon="8.187425">
        <ele>504.160650</ele>
        <time>2024-09-20T15:01:40.575Z</time>
      </trkpt>
      <trkpt lat="47.122721" lon="8.187253">
        <ele>504.084876</ele>
        <time>2024-09-20T15:01:47.235Z</time>
      </trkpt>
      <trkpt lat="47.122666" lon="8.187227">
        <ele>504.071781</ele>
        <time>2024-09-20T15:01:48.391Z</time>
      </trkpt>
      <trkpt lat="47.121347" lon="8.186591">
        <ele>503.757140</ele>
        <time>2024-09-20T15:02:17.210Z</time>
      </trkpt>
      <trkpt lat="47.120254" lon="8.185373">
        <ele>503.711430</ele>
        <time>2024-09-20T15:02:46.428Z</time>
      </trkpt>
      <trkpt lat="47.120224" lon="8.185338">
        <ele>503.710549</ele>
        <time>2024-09-20T15:02:47.192Z</time>
      </trkpt>
      <trkpt lat="47.119597" lon="8.184587">
        <ele>503.762345</ele>
        <time>2024-09-20T15:03:04.481Z</time>
      </trkpt>
      <trkpt lat="47.119231" lon="8.184309">
        <ele>503.835577</ele>
        <time>2024-09-20T15:03:13.518Z</time>
      </trkpt>
      <trkpt lat="47.119037" lon="8.184006">
        <ele>503.885899</ele>
        <time>2024-09-20T15:03:19.740Z</time>
      </trkpt>
      <trkpt lat="47.118459" lon="8.182896">
        <ele>504.162581</ele>
        <time>2024-09-20T15:03:51.349Z</time>
      </trkpt>
      <trkpt lat="47.118341" lon="8.182768">
        <ele>504.268271</ele>
        <time>2024-09-20T15:03:56.595Z</time>
      </trkpt>
      <trkpt lat="47.118310" lon="8.182731">
        <ele>504.297050</ele>
        <time>2024-09-20T15:03:58.047Z</time>
      </trkpt>
      <trkpt lat="47.118282" lon="8.182706">
        <ele>504.320660</ele>
        <time>2024-09-20T15:03:59.225Z</time>
      </trkpt>
      <trkpt lat="47.117972" lon="8.182251">
        <ele>504.636391</ele>
        <time>2024-09-20T15:04:12.055Z</time>
      </trkpt>
      <trkpt lat="47.117734" lon="8.181624">
        <ele>504.988457</ele>
        <time>2024-09-20T15:04:24.133Z</time>
      </trkpt>
      <trkpt lat="47.117516" lon="8.180355">
        <ele>505.601531</ele>
        <time>2024-09-20T15:04:45.363Z</time>
      </trkpt>
      <trkpt lat="47.117449" lon="8.179961">
        <ele>505.782480</ele>
        <time>2024-09-20T15:04:52.029Z</time>
      </trkpt>
      <trkpt lat="47.117459" lon="8.179845">
        <ele>505.834577</ele>
        <time>2024-09-20T15:04:53.988Z</time>
      </trkpt>
      <trkpt lat="47.117526" lon="8.179481">
        <ele>506.002589</ele>
        <time>2024-09-20T15:05:00.379Z</time>
      </trkpt>
      <trkpt lat="47.117714" lon="8.178970">
        <ele>506.261413</ele>
        <time>2024-09-20T15:05:09.966Z</time>
      </trkpt>
      <trkpt lat="47.117727" lon="8.178866">
        <ele>506.308526</ele>
        <time>2024-09-20T15:05:11.619Z</time>
      </trkpt>
      <trkpt lat="47.117759" lon="8.178524">
        <ele>506.462340</ele>
        <time>2024-09-20T15:05:16.928Z</time>
      </trkpt>
      <trkpt lat="47.118009" lon="8.177478">
        <ele>506.564025</ele>
        <time>2024-09-20T15:05:32.100Z</time>
      </trkpt>
      <trkpt lat="47.118087" lon="8.177310">
        <ele>506.577829</ele>
        <time>2024-09-20T15:05:34.783Z</time>
      </trkpt>
      <trkpt lat="47.118208" lon="8.177146">
        <ele>506.594248</ele>
        <time>2024-09-20T15:05:37.987Z</time>
      </trkpt>
      <trkpt lat="47.118365" lon="8.177025">
        <ele>506.611932</ele>
        <time>2024-09-20T15:05:41.474Z</time>
      </trkpt>
      <trkpt lat="47.118435" lon="8.176923">
        <ele>506.621764</ele>
        <time>2024-09-20T15:05:43.461Z</time>
      </trkpt>
      <trkpt lat="47.118624" lon="8.176474">
        <ele>506.657600</ele>
        <time>2024-09-20T15:05:50.947Z</time>
      </trkpt>
      <trkpt lat="47.118959" lon="8.175961">
        <ele>506.834763</ele>
        <time>2024-09-20T15:06:01.631Z</time>
      </trkpt>
      <trkpt lat="47.119176" lon="8.175415">
        <ele>507.045696</ele>
        <time>2024-09-20T15:06:12.192Z</time>
      </trkpt>
      <trkpt lat="47.119235" lon="8.175014">
        <ele>507.182558</ele>
        <time>2024-09-20T15:06:18.663Z</time>
      </trkpt>
      <trkpt lat="47.119218" lon="8.174675">
        <ele>507.295953</ele>
        <time>2024-09-20T15:06:23.977Z</time>
      </trkpt>
      <trkpt lat="47.119185" lon="8.174283">
        <ele>507.427718</ele>
        <time>2024-09-20T15:06:30.086Z</time>
      </trkpt>
      <trkpt lat="47.119192" lon="8.174153">
        <ele>507.471221</ele>
        <time>2024-09-20T15:06:32.067Z</time>
      </trkpt>
      <trkpt lat="47.119223" lon="8.173967">
        <ele>507.535103</ele>
        <time>2024-09-20T15:06:34.972Z</time>
      </trkpt>
      <trkpt lat="47.119373" lon="8.173509">
        <ele>507.513114</ele>
        <time>2024-09-20T15:06:42.639Z</time>
      </trkpt>
      <trkpt lat="47.119395" lon="8.173410">
        <ele>507.503483</ele>
        <time>2024-09-20T15:06:44.266Z</time>
      </trkpt>
      <trkpt lat="47.120200" lon="8.171725">
        <ele>507.313079</ele>
        <time>2024-09-20T15:07:18.941Z</time>
      </trkpt>
      <trkpt lat="47.121102" lon="8.170155">
        <ele>506.498356</ele>
        <time>2024-09-20T15:07:50.880Z</time>
      </trkpt>
      <trkpt lat="47.123457" lon="8.166616">
        <ele>506.350565</ele>
        <time>2024-09-20T15:09:19.037Z</time>
      </trkpt>
      <trkpt lat="47.123520" lon="8.166477">
        <ele>506.336223</ele>
        <time>2024-09-20T15:09:21.770Z</time>
      </trkpt>
      <trkpt lat="47.124246" lon="8.165256">
        <ele>505.772350</ele>
        <time>2024-09-20T15:09:47.631Z</time>
      </trkpt>
      <trkpt lat="47.124578" lon="8.164655">
        <ele>505.311058</ele>
        <time>2024-09-20T15:09:59.589Z</time>
      </trkpt>
      <trkpt lat="47.125218" lon="8.163318">
        <ele>504.559082</ele>
        <time>2024-09-20T15:10:25.230Z</time>
      </trkpt>
      <trkpt lat="47.125404" lon="8.162893">
        <ele>504.445674</ele>
        <time>2024-09-20T15:10:33.370Z</time>
      </trkpt>
      <trkpt lat="47.126379" lon="8.160412">
        <ele>504.246755</ele>
        <time>2024-09-20T15:11:22.690Z</time>
      </trkpt>
      <trkpt lat="47.126435" lon="8.160394">
        <ele>504.256086</ele>
        <time>2024-09-20T15:11:24.233Z</time>
      </trkpt>
      <trkpt lat="47.126604" lon="8.160568">
        <ele>504.289676</ele>
        <time>2024-09-20T15:11:29.747Z</time>
      </trkpt>
      <trkpt lat="47.126661" lon="8.160561">
        <ele>504.298987</ele>
        <time>2024-09-20T15:11:31.300Z</time>
      </trkpt>
      <trkpt lat="47.126934" lon="8.160157">
        <ele>504.362052</ele>
        <time>2024-09-20T15:11:41.706Z</time>
      </trkpt>
      <trkpt lat="47.127291" lon="8.159804">
        <ele>504.508496</ele>
        <time>2024-09-20T15:11:53.254Z</time>
      </trkpt>
      <trkpt lat="47.127429" lon="8.159544">
        <ele>504.616047</ele>
        <time>2024-09-20T15:11:59.246Z</time>
      </trkpt>
      <trkpt lat="47.127462" lon="8.159393">
        <ele>504.667774</ele>
        <time>2024-09-20T15:12:02.272Z</time>
      </trkpt>
      <trkpt lat="47.127485" lon="8.159350">
        <ele>504.685613</ele>
        <time>2024-09-20T15:12:03.267Z</time>
      </trkpt>
      <trkpt lat="47.127606" lon="8.159135">
        <ele>504.776617</ele>
        <time>2024-09-20T15:12:09.832Z</time>
      </trkpt>
      <trkpt lat="47.127782" lon="8.158177">
        <ele>505.100258</ele>
        <time>2024-09-20T15:12:33.181Z</time>
      </trkpt>
      <trkpt lat="47.127869" lon="8.157359">
        <ele>505.338103</ele>
        <time>2024-09-20T15:12:52.732Z</time>
      </trkpt>
      <trkpt lat="47.127857" lon="8.157304">
        <ele>505.351681</ele>
        <time>2024-09-20T15:12:54.053Z</time>
      </trkpt>
      <trkpt lat="47.127751" lon="8.157165">
        <ele>505.400763</ele>
        <time>2024-09-20T15:12:58.879Z</time>
      </trkpt>
      <trkpt lat="47.129234" lon="8.153458">
        <ele>506.272009</ele>
        <time>2024-09-20T15:13:59.018Z</time>
      </trkpt>
      <trkpt lat="47.129446" lon="8.152997">
        <ele>506.344928</ele>
        <time>2024-09-20T15:14:06.623Z</time>
      </trkpt>
      <trkpt lat="47.129518" lon="8.152899">
        <ele>506.351898</ele>
        <time>2024-09-20T15:14:08.511Z</time>
      </trkpt>
      <trkpt lat="47.129644" lon="8.152819">
        <ele>506.361647</ele>
        <time>2024-09-20T15:14:11.370Z</time>
      </trkpt>
      <trkpt lat="47.129801" lon="8.152520">
        <ele>506.379900</ele>
        <time>2024-09-20T15:14:16.325Z</time>
      </trkpt>
      <trkpt lat="47.129803" lon="8.152468">
        <ele>506.382417</ele>
        <time>2024-09-20T15:14:17.067Z</time>
      </trkpt>
      <trkpt lat="47.129761" lon="8.152378">
        <ele>506.387691</ele>
        <time>2024-09-20T15:14:18.672Z</time>
      </trkpt>
      <trkpt lat="47.129801" lon="8.152195">
        <ele>506.396980</ele>
        <time>2024-09-20T15:14:21.227Z</time>
      </trkpt>
      <trkpt lat="47.129996" lon="8.151762">
        <ele>506.422074</ele>
        <time>2024-09-20T15:14:28.152Z</time>
      </trkpt>
      <trkpt lat="47.130332" lon="8.151052">
        <ele>506.462513</ele>
        <time>2024-09-20T15:14:39.498Z</time>
      </trkpt>
      <trkpt lat="47.130717" lon="8.150280">
        <ele>506.320373</ele>
        <time>2024-09-20T15:14:51.670Z</time>
      </trkpt>
      <trkpt lat="47.131355" lon="8.149108">
        <ele>506.097481</ele>
        <time>2024-09-20T15:15:10.469Z</time>
      </trkpt>
      <trkpt lat="47.131853" lon="8.148258">
        <ele>505.862472</ele>
        <time>2024-09-20T15:15:24.355Z</time>
      </trkpt>
      <trkpt lat="47.132698" lon="8.146901">
        <ele>505.472506</ele>
        <time>2024-09-20T15:15:47.156Z</time>
      </trkpt>
      <trkpt lat="47.133814" lon="8.145314">
        <ele>505.242474</ele>
        <time>2024-09-20T15:16:16.175Z</time>
      </trkpt>
      <trkpt lat="47.134610" lon="8.144285">
        <ele>505.277886</ele>
        <time>2024-09-20T15:16:36.791Z</time>
      </trkpt>
      <trkpt lat="47.134657" lon="8.144224">
        <ele>505.281877</ele>
        <time>2024-09-20T15:16:38.024Z</time>
      </trkpt>
      <trkpt lat="47.136499" lon="8.141818">
        <ele>505.598243</ele>
        <time>2024-09-20T15:17:27.216Z</time>
      </trkpt>
      <trkpt lat="47.136568" lon="8.141815">
        <ele>505.609365</ele>
        <time>2024-09-20T15:17:28.661Z</time>
      </trkpt>
      <trkpt lat="47.136741" lon="8.142031">
        <ele>505.634941</ele>
        <time>2024-09-20T15:17:33.172Z</time>
      </trkpt>
      <trkpt lat="47.136913" lon="8.141962">
        <ele>505.649052</ele>
        <time>2024-09-20T15:17:36.631Z</time>
      </trkpt>
      <trkpt lat="47.136946" lon="8.141931">
        <ele>505.652152</ele>
        <time>2024-09-20T15:17:37.369Z</time>
      </trkpt>
      <trkpt lat="47.137239" lon="8.140969">
        <ele>505.708901</ele>
        <time>2024-09-20T15:17:55.386Z</time>
      </trkpt>
      <trkpt lat="47.137502" lon="8.140625">
        <ele>505.736763</ele>
        <time>2024-09-20T15:18:04.393Z</time>
      </trkpt>
      <trkpt lat="47.137965" lon="8.140061">
        <ele>505.798682</ele>
        <time>2024-09-20T15:18:20.275Z</time>
      </trkpt>
      <trkpt lat="47.138750" lon="8.139087">
        <ele>505.945911</ele>
        <time>2024-09-20T15:18:46.819Z</time>
      </trkpt>
      <trkpt lat="47.139074" lon="8.138686">
        <ele>506.006614</ele>
        <time>2024-09-20T15:18:57.731Z</time>
      </trkpt>
      <trkpt lat="47.140500" lon="8.136682">
        <ele>506.382270</ele>
        <time>2024-09-20T15:20:02.640Z</time>
      </trkpt>
      <trkpt lat="47.140930" lon="8.136000">
        <ele>506.424847</ele>
        <time>2024-09-20T15:20:23.210Z</time>
      </trkpt>
      <trkpt lat="47.142233" lon="8.133723">
        <ele>506.535477</ele>
        <time>2024-09-20T15:21:27.559Z</time>
      </trkpt>
      <trkpt lat="47.142552" lon="8.133213">
        <ele>506.553898</ele>
        <time>2024-09-20T15:21:42.713Z</time>
      </trkpt>
      <trkpt lat="47.142738" lon="8.132971">
        <ele>506.563606</ele>
        <time>2024-09-20T15:21:50.552Z</time>
      </trkpt>
      <trkpt lat="47.142973" lon="8.132625">
        <ele>506.617080</ele>
        <time>2024-09-20T15:22:01.264Z</time>
      </trkpt>
      <trkpt lat="47.143043" lon="8.132522">
        <ele>506.645863</ele>
        <time>2024-09-20T15:22:04.447Z</time>
      </trkpt>
      <trkpt lat="47.143251" lon="8.132155">
        <ele>506.740296</ele>
        <time>2024-09-20T15:22:14.871Z</time>
      </trkpt>
      <trkpt lat="47.143284" lon="8.132003">
        <ele>506.771837</ele>
        <time>2024-09-20T15:22:18.482Z</time>
      </trkpt>
      <trkpt lat="47.143303" lon="8.131807">
        <ele>506.810973</ele>
        <time>2024-09-20T15:22:22.799Z</time>
      </trkpt>
      <trkpt lat="47.143366" lon="8.131697">
        <ele>506.839400</ele>
        <time>2024-09-20T15:22:25.890Z</time>
      </trkpt>
      <trkpt lat="47.144739" lon="8.129313">
        <ele>508.096417</ele>
        <time>2024-09-20T15:23:39.246Z</time>
      </trkpt>
      <trkpt lat="47.144838" lon="8.129227">
        <ele>508.188575</ele>
        <time>2024-09-20T15:23:43.666Z</time>
      </trkpt>
      <trkpt lat="47.144984" lon="8.129188">
        <ele>508.307503</ele>
        <time>2024-09-20T15:23:49.003Z</time>
      </trkpt>
      <trkpt lat="47.145033" lon="8.129138">
        <ele>508.355306</ele>
        <time>2024-09-20T15:23:51.223Z</time>
      </trkpt>
      <trkpt lat="47.145179" lon="8.128862">
        <ele>508.557393</ele>
        <time>2024-09-20T15:24:00.364Z</time>
      </trkpt>
      <trkpt lat="47.145211" lon="8.128721">
        <ele>508.720744</ele>
        <time>2024-09-20T15:24:04.118Z</time>
      </trkpt>
      <trkpt lat="47.145260" lon="8.128429">
        <ele>509.051262</ele>
        <time>2024-09-20T15:24:12.219Z</time>
      </trkpt>
      <trkpt lat="47.145383" lon="8.128077">
        <ele>509.486160</ele>
        <time>2024-09-20T15:24:22.767Z</time>
      </trkpt>
      <trkpt lat="47.146692" lon="8.125790">
        <ele>512.592753</ele>
        <time>2024-09-20T15:25:45.290Z</time>
      </trkpt>
      <trkpt lat="47.146773" lon="8.125677">
        <ele>512.748996</ele>
        <time>2024-09-20T15:25:49.610Z</time>
      </trkpt>
      <trkpt lat="47.146845" lon="8.125634">
        <ele>512.857739</ele>
        <time>2024-09-20T15:25:52.592Z</time>
      </trkpt>
      <trkpt lat="47.146990" lon="8.125546">
        <ele>513.077242</ele>
        <time>2024-09-20T15:25:58.549Z</time>
      </trkpt>
      <trkpt lat="47.147025" lon="8.125492">
        <ele>513.148232</ele>
        <time>2024-09-20T15:26:00.465Z</time>
      </trkpt>
      <trkpt lat="47.147123" lon="8.125306">
        <ele>513.372149</ele>
        <time>2024-09-20T15:26:06.472Z</time>
      </trkpt>
      <trkpt lat="47.147177" lon="8.124990">
        <ele>513.682229</ele>
        <time>2024-09-20T15:26:14.622Z</time>
      </trkpt>
      <trkpt lat="47.147217" lon="8.124888">
        <ele>513.794281</ele>
        <time>2024-09-20T15:26:17.549Z</time>
      </trkpt>
      <trkpt lat="47.147931" lon="8.123579">
        <ele>514.882205</ele>
        <time>2024-09-20T15:26:59.166Z</time>
      </trkpt>
      <trkpt lat="47.148133" lon="8.123252">
        <ele>515.153347</ele>
        <time>2024-09-20T15:27:10.023Z</time>
      </trkpt>
      <trkpt lat="47.149301" lon="8.121189">
        <ele>516.499996</ele>
        <time>2024-09-20T15:28:15.610Z</time>
      </trkpt>
      <trkpt lat="47.149350" lon="8.121165">
        <ele>516.535111</ele>
        <time>2024-09-20T15:28:17.407Z</time>
      </trkpt>
      <trkpt lat="47.149438" lon="8.121237">
        <ele>516.603580</ele>
        <time>2024-09-20T15:28:20.892Z</time>
      </trkpt>
      <trkpt lat="47.149493" lon="8.121235">
        <ele>516.640986</ele>
        <time>2024-09-20T15:28:22.765Z</time>
      </trkpt>
      <trkpt lat="47.150221" lon="8.120699">
        <ele>516.790445</ele>
        <time>2024-09-20T15:28:49.646Z</time>
      </trkpt>
      <trkpt lat="47.150432" lon="8.120554">
        <ele>516.785049</ele>
        <time>2024-09-20T15:28:56.983Z</time>
      </trkpt>
      <trkpt lat="47.150679" lon="8.120476">
        <ele>516.779196</ele>
        <time>2024-09-20T15:29:04.860Z</time>
      </trkpt>
      <trkpt lat="47.151692" lon="8.119525">
        <ele>516.746632</ele>
        <time>2024-09-20T15:29:41.903Z</time>
      </trkpt>
      <trkpt lat="47.152337" lon="8.119063">
        <ele>516.722706</ele>
        <time>2024-09-20T15:30:04.617Z</time>
      </trkpt>
      <trkpt lat="47.152784" lon="8.118742">
        <ele>516.706116</ele>
        <time>2024-09-20T15:30:20.942Z</time>
      </trkpt>
      <trkpt lat="47.152805" lon="8.118591">
        <ele>516.702620</ele>
        <time>2024-09-20T15:30:24.433Z</time>
      </trkpt>
      <trkpt lat="47.152624" lon="8.117244">
        <ele>517.016314</ele>
        <time>2024-09-20T15:30:55.809Z</time>
      </trkpt>
      <trkpt lat="47.152659" lon="8.117024">
        <ele>517.068887</ele>
        <time>2024-09-20T15:31:01.102Z</time>
      </trkpt>
      <trkpt lat="47.152697" lon="8.116948">
        <ele>517.090836</ele>
        <time>2024-09-20T15:31:03.309Z</time>
      </trkpt>
      <trkpt lat="47.152857" lon="8.116775">
        <ele>517.158788</ele>
        <time>2024-09-20T15:31:10.081Z</time>
      </trkpt>
      <trkpt lat="47.152980" lon="8.116685">
        <ele>517.205796</ele>
        <time>2024-09-20T15:31:14.783Z</time>
      </trkpt>
      <trkpt lat="47.153370" lon="8.116454">
        <ele>517.270605</ele>
        <time>2024-09-20T15:31:28.847Z</time>
      </trkpt>
      <trkpt lat="47.153554" lon="8.116381">
        <ele>517.175363</ele>
        <time>2024-09-20T15:31:35.036Z</time>
      </trkpt>
      <trkpt lat="47.153760" lon="8.116300">
        <ele>517.068797</ele>
        <time>2024-09-20T15:31:41.801Z</time>
      </trkpt>
      <trkpt lat="47.154098" lon="8.116218">
        <ele>516.897597</ele>
        <time>2024-09-20T15:31:48.078Z</time>
      </trkpt>
      <trkpt lat="47.155054" lon="8.115646">
        <ele>516.292313</ele>
        <time>2024-09-20T15:32:05.850Z</time>
      </trkpt>
      <trkpt lat="47.155273" lon="8.115549">
        <ele>515.900451</ele>
        <time>2024-09-20T15:32:09.590Z</time>
      </trkpt>
      <trkpt lat="47.155494" lon="8.115501">
        <ele>515.517704</ele>
        <time>2024-09-20T15:32:13.140Z</time>
      </trkpt>
      <trkpt lat="47.155513" lon="8.115663">
        <ele>515.326177</ele>
        <time>2024-09-20T15:32:14.936Z</time>
      </trkpt>
      <trkpt lat="47.155566" lon="8.115919">
        <ele>515.014404</ele>
        <time>2024-09-20T15:32:17.810Z</time>
      </trkpt>
      <trkpt lat="47.155661" lon="8.116379">
        <ele>514.454306</ele>
        <time>2024-09-20T15:32:22.906Z</time>
      </trkpt>
      <trkpt lat="47.155694" lon="8.116434">
        <ele>514.368850</ele>
        <time>2024-09-20T15:32:23.679Z</time>
      </trkpt>
      <trkpt lat="47.155775" lon="8.116467">
        <ele>514.224846</ele>
        <time>2024-09-20T15:32:24.971Z</time>
      </trkpt>
      <trkpt lat="47.155939" lon="8.116435">
        <ele>513.941402</ele>
        <time>2024-09-20T15:32:27.599Z</time>
      </trkpt>
      <trkpt lat="47.156006" lon="8.116525">
        <ele>513.785930</ele>
        <time>2024-09-20T15:32:29.021Z</time>
      </trkpt>
      <trkpt lat="47.156027" lon="8.116625">
        <ele>513.663996</ele>
        <time>2024-09-20T15:32:30.113Z</time>
      </trkpt>
      <trkpt lat="47.156358" lon="8.117928">
        <ele>511.774094</ele>
        <time>2024-09-20T15:32:49.851Z</time>
      </trkpt>
      <trkpt lat="47.156447" lon="8.117921">
        <ele>511.589593</ele>
        <time>2024-09-20T15:32:51.162Z</time>
      </trkpt>
      <trkpt lat="47.156771" lon="8.117724">
        <ele>510.863820</ele>
        <time>2024-09-20T15:32:56.395Z</time>
      </trkpt>
      <trkpt lat="47.156850" lon="8.117586">
        <ele>510.609893</ele>
        <time>2024-09-20T15:33:04.918Z</time>
      </trkpt>
      <trkpt lat="47.156941" lon="8.117424">
        <ele>510.314110</ele>
        <time>2024-09-20T15:33:14.870Z</time>
      </trkpt>
      <trkpt lat="47.157010" lon="8.117301">
        <ele>510.089657</ele>
        <time>2024-09-20T15:33:22.372Z</time>
      </trkpt>
      <trkpt lat="47.157136" lon="8.117078">
        <ele>509.681530</ele>
        <time>2024-09-20T15:33:36.089Z</time>
      </trkpt>
      <trkpt lat="47.157367" lon="8.116671">
        <ele>509.249322</ele>
        <time>2024-09-20T15:34:01.144Z</time>
      </trkpt>
      <trkpt lat="47.157414" lon="8.116589">
        <ele>509.168242</ele>
        <time>2024-09-20T15:34:06.212Z</time>
      </trkpt>
      <trkpt lat="47.157668" lon="8.116812">
        <ele>508.839339</ele>
        <time>2024-09-20T15:34:26.773Z</time>
      </trkpt>
      <trkpt lat="47.157697" lon="8.116793">
        <ele>508.804041</ele>
        <time>2024-09-20T15:34:29.021Z</time>
      </trkpt>
      <trkpt lat="47.157743" lon="8.116693">
        <ele>508.712763</ele>
        <time>2024-09-20T15:34:34.700Z</time>
      </trkpt>
      <trkpt lat="47.157765" lon="8.116648">
        <ele>508.670862</ele>
        <time>2024-09-20T15:34:37.343Z</time>
      </trkpt>
      <trkpt lat="47.157674" lon="8.116566">
        <ele>508.552202</ele>
        <time>2024-09-20T15:34:39.333Z</time>
      </trkpt>
      <trkpt lat="47.157619" lon="8.116510">
        <ele>508.477825</ele>
        <time>2024-09-20T15:34:40.574Z</time>
      </trkpt>
      <trkpt lat="47.157325" lon="8.116210">
        <ele>508.079965</ele>
        <time>2024-09-20T15:34:47.096Z</time>
      </trkpt>
      <trkpt lat="47.157283" lon="8.116110">
        <ele>507.991103</ele>
        <time>2024-09-20T15:34:48.620Z</time>
      </trkpt>
      <trkpt lat="47.157254" lon="8.115891">
        <ele>507.822421</ele>
        <time>2024-09-20T15:34:51.552Z</time>
      </trkpt>
      <trkpt lat="47.157291" lon="8.115775">
        <ele>507.725552</ele>
        <time>2024-09-20T15:34:53.249Z</time>
      </trkpt>
      <trkpt lat="47.157351" lon="8.115692">
        <ele>507.633967</ele>
        <time>2024-09-20T15:34:54.923Z</time>
      </trkpt>
      <trkpt lat="47.157189" lon="8.115520">
        <ele>507.502726</ele>
        <time>2024-09-20T15:34:58.908Z</time>
      </trkpt>
      <trkpt lat="47.157201" lon="8.115336">
        <ele>507.425844</ele>
        <time>2024-09-20T15:35:01.478Z</time>
      </trkpt>
      <trkpt lat="47.157234" lon="8.115338">
        <ele>507.405642</ele>
        <time>2024-09-20T15:35:02.155Z</time>
      </trkpt>
      <trkpt lat="47.157241" lon="8.115311">
        <ele>507.393623</ele>
        <time>2024-09-20T15:35:02.576Z</time>
      </trkpt>
      <trkpt lat="47.157491" lon="8.114862">
        <ele>507.152253</ele>
        <time>2024-09-20T15:35:10.989Z</time>
      </trkpt>
      <trkpt lat="47.157589" lon="8.114554">
        <ele>507.010817</ele>
        <time>2024-09-20T15:35:16.761Z</time>
      </trkpt>
      <trkpt lat="47.157481" lon="8.114409">
        <ele>506.921368</ele>
        <time>2024-09-20T15:35:20.337Z</time>
      </trkpt>
      <trkpt lat="47.157603" lon="8.114067">
        <ele>506.760736</ele>
        <time>2024-09-20T15:35:38.555Z</time>
      </trkpt>
      <trkpt lat="47.157617" lon="8.114046">
        <ele>506.748504</ele>
        <time>2024-09-20T15:35:39.968Z</time>
      </trkpt>
      <trkpt lat="47.158251" lon="8.113070">
        <ele>506.044182</ele>
        <time>2024-09-20T15:36:43.759Z</time>
      </trkpt>
      <trkpt lat="47.158523" lon="8.112740">
        <ele>505.734129</ele>
        <time>2024-09-20T15:37:08.288Z</time>
      </trkpt>
      <trkpt lat="47.158678" lon="8.112673">
        <ele>505.592071</ele>
        <time>2024-09-20T15:37:19.475Z</time>
      </trkpt>
      <trkpt lat="47.158836" lon="8.112540">
        <ele>505.431993</ele>
        <time>2024-09-20T15:37:32.098Z</time>
      </trkpt>
      <trkpt lat="47.159106" lon="8.112332">
        <ele>505.163980</ele>
        <time>2024-09-20T15:37:53.321Z</time>
      </trkpt>
      <trkpt lat="47.159234" lon="8.112234">
        <ele>505.037090</ele>
        <time>2024-09-20T15:38:03.379Z</time>
      </trkpt>
      <trkpt lat="47.159498" lon="8.111899">
        <ele>504.889947</ele>
        <time>2024-09-20T15:38:27.619Z</time>
      </trkpt>
      <trkpt lat="47.159671" lon="8.111786">
        <ele>504.855096</ele>
        <time>2024-09-20T15:38:40.724Z</time>
      </trkpt>
      <trkpt lat="47.159882" lon="8.111729">
        <ele>504.815599</ele>
        <time>2024-09-20T15:38:55.633Z</time>
      </trkpt>
      <trkpt lat="47.160072" lon="8.111613">
        <ele>504.777724</ele>
        <time>2024-09-20T15:39:09.966Z</time>
      </trkpt>
      <trkpt lat="47.160114" lon="8.111598">
        <ele>504.769767</ele>
        <time>2024-09-20T15:39:12.983Z</time>
      </trkpt>
      <trkpt lat="47.160162" lon="8.111581">
        <ele>504.760677</ele>
        <time>2024-09-20T15:39:16.377Z</time>
      </trkpt>
      <trkpt lat="47.160380" lon="8.111596">
        <ele>504.720497</ele>
        <time>2024-09-20T15:39:31.529Z</time>
      </trkpt>
      <trkpt lat="47.160444" lon="8.111628">
        <ele>504.708052</ele>
        <time>2024-09-20T15:39:36.232Z</time>
      </trkpt>
      <trkpt lat="47.160789" lon="8.111802">
        <ele>504.640903</ele>
        <time>2024-09-20T15:40:01.543Z</time>
      </trkpt>
      <trkpt lat="47.160868" lon="8.111783">
        <ele>504.626165</ele>
        <time>2024-09-20T15:40:07.163Z</time>
      </trkpt>
      <trkpt lat="47.161033" lon="8.111662">
        <ele>504.597625</ele>
        <time>2024-09-20T15:40:19.943Z</time>
      </trkpt>
      <trkpt lat="47.161164" lon="8.111519">
        <ele>504.586015</ele>
        <time>2024-09-20T15:40:31.320Z</time>
      </trkpt>
      <trkpt lat="47.161473" lon="8.111313">
        <ele>504.561870</ele>
        <time>2024-09-20T15:40:54.860Z</time>
      </trkpt>
      <trkpt lat="47.161600" lon="8.111099">
        <ele>504.548125</ele>
        <time>2024-09-20T15:41:08.304Z</time>
      </trkpt>
      <trkpt lat="47.162243" lon="8.110593">
        <ele>504.496226</ele>
        <time>2024-09-20T15:41:58.964Z</time>
      </trkpt>
      <trkpt lat="47.162369" lon="8.110494">
        <ele>504.486060</ele>
        <time>2024-09-20T15:42:08.881Z</time>
      </trkpt>
      <trkpt lat="47.162532" lon="8.110355">
        <ele>504.468277</ele>
        <time>2024-09-20T15:42:22.005Z</time>
      </trkpt>
      <trkpt lat="47.162779" lon="8.109957">
        <ele>504.138327</ele>
        <time>2024-09-20T15:42:47.469Z</time>
      </trkpt>
      <trkpt lat="47.162937" lon="8.109683">
        <ele>503.918343</ele>
        <time>2024-09-20T15:42:51.869Z</time>
      </trkpt>
      <trkpt lat="47.163116" lon="8.109373">
        <ele>503.669316</ele>
        <time>2024-09-20T15:42:56.833Z</time>
      </trkpt>
      <trkpt lat="47.163340" lon="8.109644">
        <ele>503.408114</ele>
        <time>2024-09-20T15:43:01.762Z</time>
      </trkpt>
      <trkpt lat="47.163480" lon="8.109625">
        <ele>503.281501</ele>
        <time>2024-09-20T15:43:04.084Z</time>
      </trkpt>
      <trkpt lat="47.163759" lon="8.109683">
        <ele>503.027749</ele>
        <time>2024-09-20T15:43:08.808Z</time>
      </trkpt>
      <trkpt lat="47.164254" lon="8.109777">
        <ele>502.584216</ele>
        <time>2024-09-20T15:43:23.150Z</time>
      </trkpt>
      <trkpt lat="47.164550" lon="8.109767">
        <ele>502.323344</ele>
        <time>2024-09-20T15:43:31.721Z</time>
      </trkpt>
      <trkpt lat="47.165276" lon="8.109440">
        <ele>501.654349</ele>
        <time>2024-09-20T15:43:53.864Z</time>
      </trkpt>
      <trkpt lat="47.165296" lon="8.109438">
        <ele>501.636687</ele>
        <time>2024-09-20T15:43:54.463Z</time>
      </trkpt>
      <trkpt lat="47.165344" lon="8.109433">
        <ele>501.594288</ele>
        <time>2024-09-20T15:43:55.885Z</time>
      </trkpt>
      <trkpt lat="47.165393" lon="8.109508">
        <ele>501.531979</ele>
        <time>2024-09-20T15:43:57.989Z</time>
      </trkpt>
      <trkpt lat="47.165542" lon="8.109912">
        <ele>501.271751</ele>
        <time>2024-09-20T15:44:07.562Z</time>
      </trkpt>
      <trkpt lat="47.165867" lon="8.110525">
        <ele>501.400698</ele>
        <time>2024-09-20T15:44:24.495Z</time>
      </trkpt>
      <trkpt lat="47.165955" lon="8.110870">
        <ele>501.461821</ele>
        <time>2024-09-20T15:44:32.827Z</time>
      </trkpt>
      <trkpt lat="47.166264" lon="8.111821">
        <ele>501.636660</ele>
        <time>2024-09-20T15:44:57.121Z</time>
      </trkpt>
      <trkpt lat="47.166298" lon="8.111851">
        <ele>501.646334</ele>
        <time>2024-09-20T15:44:58.439Z</time>
      </trkpt>
      <trkpt lat="47.166384" lon="8.111778">
        <ele>501.670560</ele>
        <time>2024-09-20T15:45:00.666Z</time>
      </trkpt>
      <trkpt lat="47.166421" lon="8.111757">
        <ele>501.680236</ele>
        <time>2024-09-20T15:45:01.658Z</time>
      </trkpt>
      <trkpt lat="47.166454" lon="8.111778">
        <ele>501.689009</ele>
        <time>2024-09-20T15:45:02.566Z</time>
      </trkpt>
      <trkpt lat="47.166646" lon="8.112292">
        <ele>501.775079</ele>
        <time>2024-09-20T15:45:12.329Z</time>
      </trkpt>
      <trkpt lat="47.166900" lon="8.112530">
        <ele>501.838126</ele>
        <time>2024-09-20T15:45:19.576Z</time>
      </trkpt>
      <trkpt lat="47.166986" lon="8.112803">
        <ele>501.880950</ele>
        <time>2024-09-20T15:45:24.303Z</time>
      </trkpt>
      <trkpt lat="47.167085" lon="8.112997">
        <ele>501.915474</ele>
        <time>2024-09-20T15:45:28.077Z</time>
      </trkpt>
      <trkpt lat="47.167251" lon="8.113107">
        <ele>501.953589</ele>
        <time>2024-09-20T15:45:31.988Z</time>
      </trkpt>
      <trkpt lat="47.167738" lon="8.113173">
        <ele>502.055972</ele>
        <time>2024-09-20T15:45:42.275Z</time>
      </trkpt>
      <trkpt lat="47.167887" lon="8.113193">
        <ele>502.080548</ele>
        <time>2024-09-20T15:45:45.381Z</time>
      </trkpt>
      <trkpt lat="47.168292" lon="8.113138">
        <ele>501.998744</ele>
        <time>2024-09-20T15:45:53.867Z</time>
      </trkpt>
      <trkpt lat="47.168397" lon="8.113028">
        <ele>501.972817</ele>
        <time>2024-09-20T15:45:56.626Z</time>
      </trkpt>
      <trkpt lat="47.168717" lon="8.112330">
        <ele>501.857701</ele>
        <time>2024-09-20T15:46:08.613Z</time>
      </trkpt>
      <trkpt lat="47.169293" lon="8.111649">
        <ele>501.727649</ele>
        <time>2024-09-20T15:46:23.839Z</time>
      </trkpt>
      <trkpt lat="47.169312" lon="8.111642">
        <ele>501.729329</ele>
        <time>2024-09-20T15:46:24.241Z</time>
      </trkpt>
      <trkpt lat="47.169347" lon="8.111670">
        <ele>501.732747</ele>
        <time>2024-09-20T15:46:25.059Z</time>
      </trkpt>
      <trkpt lat="47.169405" lon="8.111705">
        <ele>501.738125</ele>
        <time>2024-09-20T15:46:26.217Z</time>
      </trkpt>
      <trkpt lat="47.169442" lon="8.111719">
        <ele>501.741402</ele>
        <time>2024-09-20T15:46:26.928Z</time>
      </trkpt>
      <trkpt lat="47.169491" lon="8.111730">
        <ele>501.745654</ele>
        <time>2024-09-20T15:46:27.841Z</time>
      </trkpt>
      <trkpt lat="47.169677" lon="8.111537">
        <ele>501.765180</ele>
        <time>2024-09-20T15:46:34.786Z</time>
      </trkpt>
      <trkpt lat="47.169842" lon="8.111327">
        <ele>501.783897</ele>
        <time>2024-09-20T15:46:41.428Z</time>
      </trkpt>
      <trkpt lat="47.170063" lon="8.110790">
        <ele>501.820504</ele>
        <time>2024-09-20T15:46:54.854Z</time>
      </trkpt>
      <trkpt lat="47.170276" lon="8.110552">
        <ele>501.843450</ele>
        <time>2024-09-20T15:47:04.149Z</time>
      </trkpt>
      <trkpt lat="47.170373" lon="8.110450">
        <ele>501.853678</ele>
        <time>2024-09-20T15:47:12.421Z</time>
      </trkpt>
      <trkpt lat="47.170591" lon="8.110288">
        <ele>501.874630</ele>
        <time>2024-09-20T15:47:29.374Z</time>
      </trkpt>
      <trkpt lat="47.170737" lon="8.110180">
        <ele>501.954891</ele>
        <time>2024-09-20T15:47:40.761Z</time>
      </trkpt>
      <trkpt lat="47.170940" lon="8.109986">
        <ele>502.087832</ele>
        <time>2024-09-20T15:47:57.582Z</time>
      </trkpt>
      <trkpt lat="47.170993" lon="8.109938">
        <ele>502.122012</ele>
        <time>2024-09-20T15:48:01.940Z</time>
      </trkpt>
      <trkpt lat="47.171031" lon="8.110050">
        <ele>502.168743</ele>
        <time>2024-09-20T15:48:07.871Z</time>
      </trkpt>
      <trkpt lat="47.171059" lon="8.110023">
        <ele>502.187129</ele>
        <time>2024-09-20T15:48:10.194Z</time>
      </trkpt>
      <trkpt lat="47.171083" lon="8.110090">
        <ele>502.215402</ele>
        <time>2024-09-20T15:48:12.144Z</time>
      </trkpt>
      <trkpt lat="47.171110" lon="8.110169">
        <ele>502.248413</ele>
        <time>2024-09-20T15:48:14.416Z</time>
      </trkpt>
      <trkpt lat="47.171254" lon="8.110634">
        <ele>502.439173</ele>
        <time>2024-09-20T15:48:38.590Z</time>
      </trkpt>
      <trkpt lat="47.171285" lon="8.110716">
        <ele>502.474202</ele>
        <time>2024-09-20T15:48:43.003Z</time>
      </trkpt>
      <trkpt lat="47.171381" lon="8.110970">
        <ele>502.582697</ele>
        <time>2024-09-20T15:48:56.747Z</time>
      </trkpt>
      <trkpt lat="47.171496" lon="8.111135">
        <ele>502.670917</ele>
        <time>2024-09-20T15:49:07.926Z</time>
      </trkpt>
      <trkpt lat="47.171514" lon="8.111111">
        <ele>502.684258</ele>
        <time>2024-09-20T15:49:08.413Z</time>
      </trkpt>
      <trkpt lat="47.171605" lon="8.110998">
        <ele>502.749657</ele>
        <time>2024-09-20T15:49:11.925Z</time>
      </trkpt>
      <trkpt lat="47.171841" lon="8.110777">
        <ele>502.844434</ele>
        <time>2024-09-20T15:49:18.273Z</time>
      </trkpt>
      <trkpt lat="47.171866" lon="8.110751">
        <ele>502.835973</ele>
        <time>2024-09-20T15:49:18.946Z</time>
      </trkpt>
      <trkpt lat="47.171878" lon="8.110739">
        <ele>502.831963</ele>
        <time>2024-09-20T15:49:19.248Z</time>
      </trkpt>
      <trkpt lat="47.172121" lon="8.110471">
        <ele>502.748032</ele>
        <time>2024-09-20T15:49:25.610Z</time>
      </trkpt>
      <trkpt lat="47.172204" lon="8.110378">
        <ele>502.719199</ele>
        <time>2024-09-20T15:49:27.584Z</time>
      </trkpt>
      <trkpt lat="47.172383" lon="8.110179">
        <ele>502.657195</ele>
        <time>2024-09-20T15:49:31.860Z</time>
      </trkpt>
      <trkpt lat="47.172445" lon="8.110089">
        <ele>502.633124</ele>
        <time>2024-09-20T15:49:33.579Z</time>
      </trkpt>
      <trkpt lat="47.172520" lon="8.109935">
        <ele>502.597535</ele>
        <time>2024-09-20T15:49:35.964Z</time>
      </trkpt>
      <trkpt lat="47.172561" lon="8.109790">
        <ele>502.568033</ele>
        <time>2024-09-20T15:49:37.976Z</time>
      </trkpt>
      <trkpt lat="47.172582" lon="8.109673">
        <ele>502.545301</ele>
        <time>2024-09-20T15:49:39.563Z</time>
      </trkpt>
      <trkpt lat="47.172596" lon="8.109400">
        <ele>502.493869</ele>
        <time>2024-09-20T15:49:43.089Z</time>
      </trkpt>
      <trkpt lat="47.172600" lon="8.109334">
        <ele>502.481421</ele>
        <time>2024-09-20T15:49:43.959Z</time>
      </trkpt>
      <trkpt lat="47.172597" lon="8.108818">
        <ele>502.384482</ele>
        <time>2024-09-20T15:49:50.385Z</time>
      </trkpt>
      <trkpt lat="47.172572" lon="8.108492">
        <ele>502.367085</ele>
        <time>2024-09-20T15:49:54.475Z</time>
      </trkpt>
      <trkpt lat="47.172566" lon="8.108405">
        <ele>502.367085</ele>
        <time>2024-09-20T15:49:55.524Z</time>
      </trkpt>
      <trkpt lat="47.172587" lon="8.108095">
        <ele>502.367085</ele>
        <time>2024-09-20T15:49:59.567Z</time>
      </trkpt>
      <trkpt lat="47.172574" lon="8.108000">
        <ele>502.367085</ele>
        <time>2024-09-20T15:50:00.886Z</time>
      </trkpt>
      <trkpt lat="47.172561" lon="8.107869">
        <ele>502.367085</ele>
        <time>2024-09-20T15:50:02.573Z</time>
      </trkpt>
      <trkpt lat="47.172561" lon="8.107821">
        <ele>502.367085</ele>
        <time>2024-09-20T15:50:03.335Z</time>
      </trkpt>
      <trkpt lat="47.172561" lon="8.107761">
        <ele>502.367085</ele>
        <time>2024-09-20T15:50:04.212Z</time>
      </trkpt>
      <trkpt lat="47.172556" lon="8.107680">
        <ele>502.367085</ele>
        <time>2024-09-20T15:50:05.253Z</time>
      </trkpt>
      <trkpt lat="47.172513" lon="8.107152">
        <ele>502.367085</ele>
        <time>2024-09-20T15:50:11.545Z</time>
      </trkpt>
      <trkpt lat="47.172733" lon="8.106998">
        <ele>502.367085</ele>
        <time>2024-09-20T15:50:15.777Z</time>
      </trkpt>
      <trkpt lat="47.172563" lon="8.106471">
        <ele>502.367085</ele>
        <time>2024-09-20T15:50:23.816Z</time>
      </trkpt>
    </trkseg>
  </trk>
</gpx>